sensor_id;sensor_type;location;lat;lon;timestamp;pressure;altitude;pressure_sealevel;temperature;humidity
16580;BME280;8402;51.466;6.806;2022-11-10T00:00:35;101457.84;;;12.27;88.17
16580;BME280;8402;51.466;6.806;2022-11-10T00:03:05;101451.72;;;12.21;89.06
16580;BME280;8402;51.466;6.806;2022-11-10T00:05:35;101454.44;;;12.21;88.93
16580;BME280;8402;51.466;6.806;2022-11-10T00:08:08;101455.53;;;12.20;88.92
16580;BME280;8402;51.466;6.806;2022-11-10T00:10:39;101455.53;;;12.20;88.94
16580;BME280;8402;51.466;6.806;2022-11-10T00:13:22;101458.25;;;12.20;88.74
16580;BME280;8402;51.466;6.806;2022-11-10T00:15:50;101454.25;;;12.18;89.17
16580;BME280;8402;51.466;6.806;2022-11-10T00:18:36;101455.06;;;12.18;89.09
16580;BME280;8402;51.466;6.806;2022-11-10T00:21:05;101462.72;;;12.16;89.47
16580;BME280;8402;51.466;6.806;2022-11-10T00:23:33;101466.03;;;12.13;89.49
16580;BME280;8402;51.466;6.806;2022-11-10T00:26:03;101472.59;;;12.12;89.81
16580;BME280;8402;51.466;6.806;2022-11-10T00:28:31;101472.00;;;12.15;89.72
16580;BME280;8402;51.466;6.806;2022-11-10T00:31:03;101478.03;;;12.12;89.68
16580;BME280;8402;51.466;6.806;2022-11-10T00:33:33;101476.44;;;12.11;89.67
16580;BME280;8402;51.466;6.806;2022-11-10T00:36:02;101479.16;;;12.11;89.68
16580;BME280;8402;51.466;6.806;2022-11-10T00:38:30;101481.88;;;12.11;89.82
16580;BME280;8402;51.466;6.806;2022-11-10T00:40:58;101483.00;;;12.10;89.52
16580;BME280;8402;51.466;6.806;2022-11-10T00:43:28;101487.31;;;12.11;89.61
16580;BME280;8402;51.466;6.806;2022-11-10T00:45:58;101493.88;;;12.10;89.82
16580;BME280;8402;51.466;6.806;2022-11-10T00:48:26;101491.75;;;12.07;89.57
16580;BME280;8402;51.466;6.806;2022-11-10T00:50:54;101495.56;;;12.06;89.82
16580;BME280;8402;51.466;6.806;2022-11-10T00:53:22;101486.94;;;12.04;89.81
16580;BME280;8402;51.466;6.806;2022-11-10T00:55:50;101490.75;;;12.03;89.94
16580;BME280;8402;51.466;6.806;2022-11-10T00:58:18;101490.75;;;12.03;89.99
16580;BME280;8402;51.466;6.806;2022-11-10T01:00:48;101493.78;;;12.01;89.95
16580;BME280;8402;51.466;6.806;2022-11-10T01:03:17;101498.44;;;12.01;90.10
16580;BME280;8402;51.466;6.806;2022-11-10T01:05:45;101502.22;;;12.00;90.43
16580;BME280;8402;51.466;6.806;2022-11-10T01:08:13;101504.97;;;12.00;90.27
16580;BME280;8402;51.466;6.806;2022-11-10T01:10:41;101504.47;;;11.98;90.72
16580;BME280;8402;51.466;6.806;2022-11-10T01:13:09;101499.81;;;11.98;90.76
16580;BME280;8402;51.466;6.806;2022-11-10T01:15:38;101506.28;;;12.02;90.67
16580;BME280;8402;51.466;6.806;2022-11-10T01:18:08;101506.47;;;12.06;90.67
16580;BME280;8402;51.466;6.806;2022-11-10T01:20:36;101512.72;;;12.06;90.30
16580;BME280;8402;51.466;6.806;2022-11-10T01:23:04;101522.78;;;12.06;90.34
16580;BME280;8402;51.466;6.806;2022-11-10T01:25:32;101517.34;;;12.06;90.20
16580;BME280;8402;51.466;6.806;2022-11-10T01:28:00;101518.34;;;12.10;90.21
16580;BME280;8402;51.466;6.806;2022-11-10T01:30:28;101525.41;;;12.11;90.03
16580;BME280;8402;51.466;6.806;2022-11-10T01:32:56;101537.88;;;12.12;89.85
16580;BME280;8402;51.466;6.806;2022-11-10T01:35:25;101529.25;;;12.10;89.81
16580;BME280;8402;51.466;6.806;2022-11-10T01:37:53;101533.56;;;12.11;90.00
16580;BME280;8402;51.466;6.806;2022-11-10T01:40:21;101544.44;;;12.11;89.70
16580;BME280;8402;51.466;6.806;2022-11-10T01:42:50;101541.53;;;12.07;90.13
16580;BME280;8402;51.466;6.806;2022-11-10T01:45:47;101552.22;;;12.04;89.70
16580;BME280;8402;51.466;6.806;2022-11-10T01:48:18;101549.00;;;12.02;90.47
16580;BME280;8402;51.466;6.806;2022-11-10T01:50:50;101552.53;;;12.02;90.15
16580;BME280;8402;51.466;6.806;2022-11-10T01:53:25;101549.19;;;11.92;91.73
16580;BME280;8402;51.466;6.806;2022-11-10T01:55:54;101557.47;;;12.00;90.89
16580;BME280;8402;51.466;6.806;2022-11-10T01:58:26;101560.69;;;12.02;90.82
16580;BME280;8402;51.466;6.806;2022-11-10T02:00:56;101553.91;;;12.00;90.69
16580;BME280;8402;51.466;6.806;2022-11-10T02:03:31;101557.47;;;12.00;90.56
16580;BME280;8402;51.466;6.806;2022-11-10T02:06:05;101565.91;;;11.99;90.31
16580;BME280;8402;51.466;6.806;2022-11-10T02:08:34;101568.94;;;11.97;90.26
16580;BME280;8402;51.466;6.806;2022-11-10T02:11:02;101565.41;;;11.97;90.40
16580;BME280;8402;51.466;6.806;2022-11-10T02:13:30;101558.38;;;11.96;90.34
16580;BME280;8402;51.466;6.806;2022-11-10T02:15:58;101567.72;;;11.90;90.41
16580;BME280;8402;51.466;6.806;2022-11-10T02:18:27;101573.78;;;11.87;90.36
16580;BME280;8402;51.466;6.806;2022-11-10T02:20:57;101575.00;;;11.80;90.87
16580;BME280;8402;51.466;6.806;2022-11-10T02:23:44;101575.06;;;11.75;90.27
16580;BME280;8402;51.466;6.806;2022-11-10T02:26:13;101577.16;;;11.78;90.50
16580;BME280;8402;51.466;6.806;2022-11-10T02:28:42;101574.56;;;11.73;90.87
16580;BME280;8402;51.466;6.806;2022-11-10T02:31:10;101575.94;;;11.71;90.96
16580;BME280;8402;51.466;6.806;2022-11-10T02:33:39;101579.59;;;11.66;91.97
16580;BME280;8402;51.466;6.806;2022-11-10T02:36:08;101586.63;;;11.67;90.90
16580;BME280;8402;51.466;6.806;2022-11-10T02:38:36;101576.34;;;11.64;91.16
16580;BME280;8402;51.466;6.806;2022-11-10T02:41:04;101576.94;;;11.61;91.54
16580;BME280;8402;51.466;6.806;2022-11-10T02:43:33;101581.59;;;11.61;91.29
16580;BME280;8402;51.466;6.806;2022-11-10T02:46:03;101578.56;;;11.62;91.21
16580;BME280;8402;51.466;6.806;2022-11-10T02:48:31;101579.16;;;11.59;91.24
16580;BME280;8402;51.466;6.806;2022-11-10T02:50:59;101589.25;;;11.58;90.83
16580;BME280;8402;51.466;6.806;2022-11-10T02:53:30;101598.19;;;11.59;91.16
16580;BME280;8402;51.466;6.806;2022-11-10T02:55:58;101600.91;;;11.59;91.18
16580;BME280;8402;51.466;6.806;2022-11-10T02:58:26;101611.47;;;11.61;90.82
16580;BME280;8402;51.466;6.806;2022-11-10T03:00:54;101603.63;;;11.59;91.10
16580;BME280;8402;51.466;6.806;2022-11-10T03:03:22;101615.63;;;11.58;91.13
16580;BME280;8402;51.466;6.806;2022-11-10T03:05:50;101604.53;;;11.54;91.19
16580;BME280;8402;51.466;6.806;2022-11-10T03:08:18;101611.06;;;11.53;90.88
16580;BME280;8402;51.466;6.806;2022-11-10T03:10:52;101609.16;;;11.54;91.22
16580;BME280;8402;51.466;6.806;2022-11-10T03:13:23;101607.53;;;11.53;91.33
16580;BME280;8402;51.466;6.806;2022-11-10T03:16:05;101602.69;;;11.50;91.47
16580;BME280;8402;51.466;6.806;2022-11-10T03:18:33;101607.03;;;11.51;91.51
16580;BME280;8402;51.466;6.806;2022-11-10T03:21:01;101604.31;;;11.51;91.25
16580;BME280;8402;51.466;6.806;2022-11-10T03:23:29;101622.25;;;11.52;91.34
16580;BME280;8402;51.466;6.806;2022-11-10T03:25:58;101614.59;;;11.54;91.46
16580;BME280;8402;51.466;6.806;2022-11-10T03:28:26;101608.66;;;11.52;91.86
16580;BME280;8402;51.466;6.806;2022-11-10T03:30:54;101614.66;;;11.49;91.91
16580;BME280;8402;51.466;6.806;2022-11-10T03:33:22;101617.19;;;11.45;92.51
16580;BME280;8402;51.466;6.806;2022-11-10T03:35:50;101629.66;;;11.46;92.10
16580;BME280;8402;51.466;6.806;2022-11-10T03:38:18;101633.50;;;11.45;92.27
16580;BME280;8402;51.466;6.806;2022-11-10T03:40:48;101639.50;;;11.42;93.06
16580;BME280;8402;51.466;6.806;2022-11-10T03:43:37;101644.13;;;11.42;92.55
16580;BME280;8402;51.466;6.806;2022-11-10T03:46:05;101651.28;;;11.38;93.02
16580;BME280;8402;51.466;6.806;2022-11-10T03:48:33;101664.88;;;11.38;92.83
16580;BME280;8402;51.466;6.806;2022-11-10T03:51:02;101668.59;;;11.42;92.89
16580;BME280;8402;51.466;6.806;2022-11-10T03:53:29;101652.03;;;11.43;93.24
16580;BME280;8402;51.466;6.806;2022-11-10T03:55:59;101665.81;;;11.47;92.94
16580;BME280;8402;51.466;6.806;2022-11-10T03:58:27;101663.59;;;11.49;92.83
16580;BME280;8402;51.466;6.806;2022-11-10T04:00:57;101670.63;;;11.50;92.74
16580;BME280;8402;51.466;6.806;2022-11-10T04:03:24;101683.16;;;11.51;92.54
16580;BME280;8402;51.466;6.806;2022-11-10T04:05:52;101673.34;;;11.50;92.61
16580;BME280;8402;51.466;6.806;2022-11-10T04:08:38;101681.00;;;11.48;92.97
16580;BME280;8402;51.466;6.806;2022-11-10T04:11:23;101692.69;;;11.48;92.66
16580;BME280;8402;51.466;6.806;2022-11-10T04:14:09;101699.53;;;11.46;93.16
16580;BME280;8402;51.466;6.806;2022-11-10T04:16:56;101705.47;;;11.48;92.94
16580;BME280;8402;51.466;6.806;2022-11-10T04:19:24;101705.97;;;11.50;92.80
16580;BME280;8402;51.466;6.806;2022-11-10T04:21:52;101708.41;;;11.51;92.37
16580;BME280;8402;51.466;6.806;2022-11-10T04:24:20;101710.81;;;11.53;92.75
16580;BME280;8402;51.466;6.806;2022-11-10T04:26:48;101709.22;;;11.52;92.47
16580;BME280;8402;51.466;6.806;2022-11-10T04:29:17;101708.63;;;11.55;92.64
16580;BME280;8402;51.466;6.806;2022-11-10T04:31:45;101714.03;;;11.55;92.38
16580;BME280;8402;51.466;6.806;2022-11-10T04:34:14;101714.84;;;11.55;92.33
16580;BME280;8402;51.466;6.806;2022-11-10T04:36:43;101707.81;;;11.54;92.46
16580;BME280;8402;51.466;6.806;2022-11-10T04:39:11;101719.47;;;11.55;92.52
16580;BME280;8402;51.466;6.806;2022-11-10T04:41:39;101726.03;;;11.54;92.58
16580;BME280;8402;51.466;6.806;2022-11-10T04:44:07;101741.03;;;11.51;92.59
16580;BME280;8402;51.466;6.806;2022-11-10T04:46:37;101745.44;;;11.47;92.55
16580;BME280;8402;51.466;6.806;2022-11-10T04:49:06;101742.78;;;11.42;93.12
16580;BME280;8402;51.466;6.806;2022-11-10T04:51:37;101743.06;;;11.41;92.71
16580;BME280;8402;51.466;6.806;2022-11-10T04:54:06;101748.00;;;11.39;92.80
16580;BME280;8402;51.466;6.806;2022-11-10T04:56:34;101747.50;;;11.37;92.78
16580;BME280;8402;51.466;6.806;2022-11-10T04:59:02;101761.34;;;11.35;92.80
16580;BME280;8402;51.466;6.806;2022-11-10T05:01:30;101770.63;;;11.34;92.97
16580;BME280;8402;51.466;6.806;2022-11-10T05:03:58;101762.47;;;11.34;92.82
16580;BME280;8402;51.466;6.806;2022-11-10T05:06:26;101758.94;;;11.34;92.65
16580;BME280;8402;51.466;6.806;2022-11-10T05:08:56;101779.06;;;11.33;92.90
16580;BME280;8402;51.466;6.806;2022-11-10T05:11:24;101772.03;;;11.32;92.78
16580;BME280;8402;51.466;6.806;2022-11-10T05:13:52;101779.13;;;11.27;93.05
16580;BME280;8402;51.466;6.806;2022-11-10T05:16:22;101787.00;;;11.29;93.07
16580;BME280;8402;51.466;6.806;2022-11-10T05:18:50;101790.00;;;11.27;92.81
16580;BME280;8402;51.466;6.806;2022-11-10T05:21:21;101794.63;;;11.27;92.85
16580;BME280;8402;51.466;6.806;2022-11-10T05:23:49;101800.88;;;11.27;92.97
16580;BME280;8402;51.466;6.806;2022-11-10T05:26:20;101800.06;;;11.27;92.50
16580;BME280;8402;51.466;6.806;2022-11-10T05:28:48;101796.53;;;11.26;92.43
16580;BME280;8402;51.466;6.806;2022-11-10T05:31:15;101801.69;;;11.28;92.93
16580;BME280;8402;51.466;6.806;2022-11-10T05:33:44;101803.06;;;11.25;92.46
16580;BME280;8402;51.466;6.806;2022-11-10T05:36:11;101808.56;;;11.20;92.90
16580;BME280;8402;51.466;6.806;2022-11-10T05:38:39;101811.88;;;11.17;93.58
16580;BME280;8402;51.466;6.806;2022-11-10T05:41:09;101815.72;;;11.16;93.52
16580;BME280;8402;51.466;6.806;2022-11-10T05:43:38;101816.81;;;11.15;93.61
16580;BME280;8402;51.466;6.806;2022-11-10T05:46:06;101816.56;;;11.12;93.65
16580;BME280;8402;51.466;6.806;2022-11-10T05:48:34;101819.28;;;11.12;93.86
16580;BME280;8402;51.466;6.806;2022-11-10T05:51:02;101817.44;;;11.07;94.07
16580;BME280;8402;51.466;6.806;2022-11-10T05:53:30;101814.50;;;11.03;94.35
16580;BME280;8402;51.466;6.806;2022-11-10T05:55:58;101817.50;;;11.02;94.44
16580;BME280;8402;51.466;6.806;2022-11-10T05:58:26;101812.66;;;10.99;94.36
16580;BME280;8402;51.466;6.806;2022-11-10T06:00:55;101822.41;;;11.00;94.49
16580;BME280;8402;51.466;6.806;2022-11-10T06:03:23;101818.06;;;10.99;94.80
16580;BME280;8402;51.466;6.806;2022-11-10T06:05:52;101824.59;;;10.98;94.27
16580;BME280;8402;51.466;6.806;2022-11-10T06:08:20;101825.41;;;10.98;94.29
16580;BME280;8402;51.466;6.806;2022-11-10T06:10:48;101825.13;;;11.00;94.03
16580;BME280;8402;51.466;6.806;2022-11-10T06:13:16;101826.81;;;10.96;94.79
16580;BME280;8402;51.466;6.806;2022-11-10T06:15:44;101833.66;;;10.93;94.88
16580;BME280;8402;51.466;6.806;2022-11-10T06:18:17;101838.25;;;10.93;94.81
16580;BME280;8402;51.466;6.806;2022-11-10T06:20:45;101845.56;;;10.92;94.43
16580;BME280;8402;51.466;6.806;2022-11-10T06:23:14;101850.19;;;10.92;94.67
16580;BME280;8402;51.466;6.806;2022-11-10T06:25:42;101854.03;;;10.91;94.66
16580;BME280;8402;51.466;6.806;2022-11-10T06:28:11;101862.16;;;10.91;94.75
16580;BME280;8402;51.466;6.806;2022-11-10T06:30:40;101864.38;;;10.89;95.11
16580;BME280;8402;51.466;6.806;2022-11-10T06:33:08;101858.94;;;10.89;95.09
16580;BME280;8402;51.466;6.806;2022-11-10T06:35:37;101865.97;;;10.90;95.34
16580;BME280;8402;51.466;6.806;2022-11-10T06:38:08;101877.66;;;10.90;95.17
16580;BME280;8402;51.466;6.806;2022-11-10T06:40:36;101880.06;;;10.92;95.56
16580;BME280;8402;51.466;6.806;2022-11-10T06:43:04;101888.75;;;10.94;95.23
16580;BME280;8402;51.466;6.806;2022-11-10T06:45:32;101894.41;;;10.97;95.34
16580;BME280;8402;51.466;6.806;2022-11-10T06:48:01;101899.03;;;10.97;95.45
16580;BME280;8402;51.466;6.806;2022-11-10T06:50:29;101893.59;;;10.97;95.94
16580;BME280;8402;51.466;6.806;2022-11-10T06:52:59;101897.63;;;10.99;95.87
16580;BME280;8402;51.466;6.806;2022-11-10T06:55:28;101900.09;;;11.01;95.30
16580;BME280;8402;51.466;6.806;2022-11-10T06:57:56;101906.59;;;11.00;95.86
16580;BME280;8402;51.466;6.806;2022-11-10T07:00:25;101913.38;;;11.02;95.65
16580;BME280;8402;51.466;6.806;2022-11-10T07:03:00;101923.44;;;11.02;95.80
16580;BME280;8402;51.466;6.806;2022-11-10T07:05:29;101922.28;;;11.08;95.58
16580;BME280;8402;51.466;6.806;2022-11-10T07:08:02;101936.38;;;11.10;95.78
16580;BME280;8402;51.466;6.806;2022-11-10T07:10:31;101933.97;;;11.09;95.61
16580;BME280;8402;51.466;6.806;2022-11-10T07:13:01;101941.81;;;11.10;95.41
16580;BME280;8402;51.466;6.806;2022-11-10T07:15:29;101939.59;;;11.12;95.65
16580;BME280;8402;51.466;6.806;2022-11-10T07:17:59;101943.69;;;11.15;95.62
16580;BME280;8402;51.466;6.806;2022-11-10T07:20:28;101956.97;;;11.16;95.61
16580;BME280;8402;51.466;6.806;2022-11-10T07:22:57;101962.41;;;11.16;95.47
16580;BME280;8402;51.466;6.806;2022-11-10T07:25:28;101966.72;;;11.17;95.64
16580;BME280;8402;51.466;6.806;2022-11-10T07:27:57;101967.81;;;11.16;95.93
16580;BME280;8402;51.466;6.806;2022-11-10T07:30:26;101966.69;;;11.22;95.68
16580;BME280;8402;51.466;6.806;2022-11-10T07:32:59;101967.72;;;11.26;95.96
16580;BME280;8402;51.466;6.806;2022-11-10T07:35:27;101972.81;;;11.33;94.75
16580;BME280;8402;51.466;6.806;2022-11-10T07:37:56;101977.38;;;11.38;95.00
16580;BME280;8402;51.466;6.806;2022-11-10T07:40:24;101972.47;;;11.40;94.90
16580;BME280;8402;51.466;6.806;2022-11-10T07:42:53;101975.97;;;11.40;94.89
16580;BME280;8402;51.466;6.806;2022-11-10T07:45:22;101982.81;;;11.38;94.76
16580;BME280;8402;51.466;6.806;2022-11-10T07:47:49;101991.00;;;11.33;95.63
16580;BME280;8402;51.466;6.806;2022-11-10T07:50:18;101992.63;;;11.34;95.03
16580;BME280;8402;51.466;6.806;2022-11-10T07:52:46;101999.75;;;11.29;95.55
16580;BME280;8402;51.466;6.806;2022-11-10T07:55:14;102002.97;;;11.32;95.33
16580;BME280;8402;51.466;6.806;2022-11-10T07:57:42;102008.41;;;11.32;95.08
16580;BME280;8402;51.466;6.806;2022-11-10T08:00:12;102008.72;;;11.30;95.65
16580;BME280;8402;51.466;6.806;2022-11-10T08:02:41;102016.06;;;11.29;95.62
16580;BME280;8402;51.466;6.806;2022-11-10T08:05:08;102016.06;;;11.29;95.73
16580;BME280;8402;51.466;6.806;2022-11-10T08:07:36;102030.16;;;11.32;95.59
16580;BME280;8402;51.466;6.806;2022-11-10T08:10:05;102028.75;;;11.34;95.53
16580;BME280;8402;51.466;6.806;2022-11-10T08:12:33;102032.84;;;11.37;95.49
16580;BME280;8402;51.466;6.806;2022-11-10T08:15:01;102032.84;;;11.37;95.99
16580;BME280;8402;51.466;6.806;2022-11-10T08:17:30;102036.56;;;11.41;95.31
16580;BME280;8402;51.466;6.806;2022-11-10T08:19:58;102042.53;;;11.43;95.85
16580;BME280;8402;51.466;6.806;2022-11-10T08:22:26;102044.16;;;11.44;95.64
16580;BME280;8402;51.466;6.806;2022-11-10T08:24:54;102050.69;;;11.43;95.82
16580;BME280;8402;51.466;6.806;2022-11-10T08:27:22;102046.81;;;11.49;95.67
16580;BME280;8402;51.466;6.806;2022-11-10T08:29:50;102050.88;;;11.51;95.67
16580;BME280;8402;51.466;6.806;2022-11-10T08:32:18;102046.25;;;11.52;95.70
16580;BME280;8402;51.466;6.806;2022-11-10T08:34:48;102049.19;;;11.55;95.82
16580;BME280;8402;51.466;6.806;2022-11-10T08:37:16;102053.25;;;11.58;95.90
16580;BME280;8402;51.466;6.806;2022-11-10T08:39:44;102053.78;;;11.60;96.03
16580;BME280;8402;51.466;6.806;2022-11-10T08:42:11;102070.59;;;11.62;95.98
16580;BME280;8402;51.466;6.806;2022-11-10T08:44:40;102065.91;;;11.68;96.04
16580;BME280;8402;51.466;6.806;2022-11-10T08:47:08;102068.06;;;11.71;96.03
16580;BME280;8402;51.466;6.806;2022-11-10T08:49:35;102059.34;;;11.74;96.10
16580;BME280;8402;51.466;6.806;2022-11-10T08:52:05;102059.56;;;11.77;95.89
16580;BME280;8402;51.466;6.806;2022-11-10T08:54:32;102075.34;;;11.80;95.81
16580;BME280;8402;51.466;6.806;2022-11-10T08:57:00;102064.38;;;11.85;95.61
16580;BME280;8402;51.466;6.806;2022-11-10T08:59:28;102079.03;;;11.90;95.59
16580;BME280;8402;51.466;6.806;2022-11-10T09:01:56;102074.03;;;11.97;95.82
16580;BME280;8402;51.466;6.806;2022-11-10T09:04:25;102075.09;;;12.01;95.37
16580;BME280;8402;51.466;6.806;2022-11-10T09:06:53;102070.69;;;12.05;95.58
16580;BME280;8402;51.466;6.806;2022-11-10T09:09:25;102067.91;;;12.10;95.60
16580;BME280;8402;51.466;6.806;2022-11-10T09:11:53;102073.78;;;12.17;95.38
16580;BME280;8402;51.466;6.806;2022-11-10T09:14:20;102066.09;;;12.24;95.28
16580;BME280;8402;51.466;6.806;2022-11-10T09:16:48;102064.00;;;12.35;94.95
16580;BME280;8402;51.466;6.806;2022-11-10T09:19:16;102068.53;;;12.45;94.79
16580;BME280;8402;51.466;6.806;2022-11-10T09:21:45;102069.78;;;12.52;94.27
16580;BME280;8402;51.466;6.806;2022-11-10T09:24:13;102081.09;;;12.59;94.42
16580;BME280;8402;51.466;6.806;2022-11-10T09:26:43;102091.84;;;12.70;94.19
16580;BME280;8402;51.466;6.806;2022-11-10T09:29:13;102083.59;;;12.75;94.06
16580;BME280;8402;51.466;6.806;2022-11-10T09:31:42;102091.91;;;12.83;93.67
16580;BME280;8402;51.466;6.806;2022-11-10T09:34:10;102089.09;;;12.88;93.35
16580;BME280;8402;51.466;6.806;2022-11-10T09:36:38;102094.50;;;12.93;93.14
16580;BME280;8402;51.466;6.806;2022-11-10T09:39:06;102092.19;;;13.01;93.38
16580;BME280;8402;51.466;6.806;2022-11-10T09:41:38;102098.06;;;13.08;92.91
16580;BME280;8402;51.466;6.806;2022-11-10T09:44:13;102098.50;;;13.15;92.75
16580;BME280;8402;51.466;6.806;2022-11-10T09:46:46;102107.13;;;13.22;92.73
16580;BME280;8402;51.466;6.806;2022-11-10T09:49:24;102115.00;;;13.24;91.82
16580;BME280;8402;51.466;6.806;2022-11-10T09:51:56;102116.75;;;13.33;92.05
16580;BME280;8402;51.466;6.806;2022-11-10T09:54:32;102108.47;;;13.38;92.28
16580;BME280;8402;51.466;6.806;2022-11-10T09:57:05;102115.97;;;13.46;91.69
16580;BME280;8402;51.466;6.806;2022-11-10T09:59:35;102131.94;;;13.53;92.28
16580;BME280;8402;51.466;6.806;2022-11-10T10:02:11;102122.56;;;13.59;91.39
16580;BME280;8402;51.466;6.806;2022-11-10T10:05:06;102125.47;;;13.63;91.12
16580;BME280;8402;51.466;6.806;2022-11-10T10:07:49;102123.69;;;13.72;90.74
16580;BME280;8402;51.466;6.806;2022-11-10T10:10:25;102134.81;;;13.75;90.76
16580;BME280;8402;51.466;6.806;2022-11-10T10:13:06;102132.56;;;13.77;89.75
16580;BME280;8402;51.466;6.806;2022-11-10T10:15:42;102132.00;;;13.81;89.83
16580;BME280;8402;51.466;6.806;2022-11-10T10:18:24;102132.19;;;13.84;89.86
16580;BME280;8402;51.466;6.806;2022-11-10T10:21:09;102133.38;;;13.92;89.70
16580;BME280;8402;51.466;6.806;2022-11-10T10:23:43;102138.56;;;13.93;89.32
16580;BME280;8402;51.466;6.806;2022-11-10T10:26:37;102127.34;;;13.95;89.98
16580;BME280;8402;51.466;6.806;2022-11-10T10:29:09;102127.75;;;14.02;89.50
16580;BME280;8402;51.466;6.806;2022-11-10T10:31:42;102123.09;;;14.02;89.70
16580;BME280;8402;51.466;6.806;2022-11-10T10:34:14;102117.81;;;14.06;89.82
16580;BME280;8402;51.466;6.806;2022-11-10T10:36:43;102119.84;;;14.14;89.87
16580;BME280;8402;51.466;6.806;2022-11-10T10:39:13;102126.53;;;14.22;89.28
16580;BME280;8402;51.466;6.806;2022-11-10T10:41:44;102122.06;;;14.26;89.50
16580;BME280;8402;51.466;6.806;2022-11-10T10:44:14;102131.56;;;14.28;88.66
16580;BME280;8402;51.466;6.806;2022-11-10T10:46:49;102120.34;;;14.30;88.37
16580;BME280;8402;51.466;6.806;2022-11-10T10:49:19;102127.94;;;14.33;88.62
16580;BME280;8402;51.466;6.806;2022-11-10T10:52:03;102122.47;;;14.33;87.49
16580;BME280;8402;51.466;6.806;2022-11-10T10:54:32;102136.31;;;14.37;87.99
16580;BME280;8402;51.466;6.806;2022-11-10T10:57:03;102131.53;;;14.42;87.49
16580;BME280;8402;51.466;6.806;2022-11-10T10:59:33;102140.25;;;14.44;88.26
16580;BME280;8402;51.466;6.806;2022-11-10T11:02:02;102154.44;;;14.46;87.57
16580;BME280;8402;51.466;6.806;2022-11-10T11:04:32;102148.34;;;14.49;87.30
16580;BME280;8402;51.466;6.806;2022-11-10T11:07:03;102148.34;;;14.49;87.35
16580;BME280;8402;51.466;6.806;2022-11-10T11:09:38;102147.75;;;14.52;86.98
16580;BME280;8402;51.466;6.806;2022-11-10T11:12:10;102155.31;;;14.55;87.73
16580;BME280;8402;51.466;6.806;2022-11-10T11:14:38;102162.13;;;14.58;87.88
16580;BME280;8402;51.466;6.806;2022-11-10T11:17:17;102161.50;;;14.61;87.55
16580;BME280;8402;51.466;6.806;2022-11-10T11:19:46;102165.09;;;14.70;86.75
16580;BME280;8402;51.466;6.806;2022-11-10T11:22:39;102170.56;;;14.70;86.23
16580;BME280;8402;51.466;6.806;2022-11-10T11:25:19;102162.91;;;14.72;86.31
16580;BME280;8402;51.466;6.806;2022-11-10T11:27:58;102166.94;;;14.75;86.18
16580;BME280;8402;51.466;6.806;2022-11-10T11:30:39;102165.22;;;14.79;85.23
16580;BME280;8402;51.466;6.806;2022-11-10T11:33:26;102164.09;;;14.80;85.62
16580;BME280;8402;51.466;6.806;2022-11-10T11:36:02;102175.41;;;14.87;85.99
16580;BME280;8402;51.466;6.806;2022-11-10T11:38:44;102186.53;;;14.91;85.67
16580;BME280;8402;51.466;6.806;2022-11-10T11:41:25;102174.66;;;14.95;85.03
16580;BME280;8402;51.466;6.806;2022-11-10T11:44:10;102187.09;;;15.01;84.94
16580;BME280;8402;51.466;6.806;2022-11-10T11:46:47;102188.72;;;15.02;84.22
16580;BME280;8402;51.466;6.806;2022-11-10T11:49:38;102200.94;;;15.05;83.57
16580;BME280;8402;51.466;6.806;2022-11-10T11:52:15;102193.44;;;15.10;83.24
16580;BME280;8402;51.466;6.806;2022-11-10T11:55:00;102191.72;;;15.14;82.80
16580;BME280;8402;51.466;6.806;2022-11-10T11:57:40;102195.94;;;15.21;82.75
16580;BME280;8402;51.466;6.806;2022-11-10T12:00:13;102184.41;;;15.24;83.18
16580;BME280;8402;51.466;6.806;2022-11-10T12:03:02;102190.19;;;15.22;82.14
16580;BME280;8402;51.466;6.806;2022-11-10T12:05:45;102193.09;;;15.26;81.46
16580;BME280;8402;51.466;6.806;2022-11-10T12:08:30;102200.16;;;15.27;80.90
16580;BME280;8402;51.466;6.806;2022-11-10T12:11:06;102193.09;;;15.26;80.22
16580;BME280;8402;51.466;6.806;2022-11-10T12:13:46;102201.19;;;15.31;80.48
16580;BME280;8402;51.466;6.806;2022-11-10T12:16:21;102197.50;;;15.35;80.74
16580;BME280;8402;51.466;6.806;2022-11-10T12:18:57;102201.34;;;15.34;79.46
16580;BME280;8402;51.466;6.806;2022-11-10T12:21:37;102198.31;;;15.36;79.67
16580;BME280;8402;51.466;6.806;2022-11-10T12:24:35;102210.88;;;15.37;78.38
16580;BME280;8402;51.466;6.806;2022-11-10T12:27:11;102216.72;;;15.44;78.80
16580;BME280;8402;51.466;6.806;2022-11-10T12:29:43;102216.72;;;15.44;78.81
16580;BME280;8402;51.466;6.806;2022-11-10T12:32:17;102219.94;;;15.46;78.99
16580;BME280;8402;51.466;6.806;2022-11-10T12:34:52;102218.34;;;15.45;79.68
16580;BME280;8402;51.466;6.806;2022-11-10T12:37:28;102221.56;;;15.47;78.15
16580;BME280;8402;51.466;6.806;2022-11-10T12:40:02;102219.31;;;15.49;78.78
16580;BME280;8402;51.466;6.806;2022-11-10T12:42:33;102225.59;;;15.50;79.26
16580;BME280;8402;51.466;6.806;2022-11-10T12:45:06;102225.78;;;15.53;79.32
16580;BME280;8402;51.466;6.806;2022-11-10T12:47:38;102223.38;;;15.52;79.10
16580;BME280;8402;51.466;6.806;2022-11-10T12:50:39;102229.28;;;15.45;78.33
16580;BME280;8402;51.466;6.806;2022-11-10T12:53:19;102237.16;;;15.47;78.17
16580;BME280;8402;51.466;6.806;2022-11-10T12:55:53;102238.97;;;15.51;78.54
16580;BME280;8402;51.466;6.806;2022-11-10T12:58:24;102237.38;;;15.50;79.18
16580;BME280;8402;51.466;6.806;2022-11-10T13:00:55;102225.59;;;15.50;78.49
16580;BME280;8402;51.466;6.806;2022-11-10T13:03:28;102231.91;;;15.50;78.19
16580;BME280;8402;51.466;6.806;2022-11-10T13:06:00;102229.66;;;15.52;78.55
16580;BME280;8402;51.466;6.806;2022-11-10T13:08:35;102237.38;;;15.50;77.07
16580;BME280;8402;51.466;6.806;2022-11-10T13:11:21;102227.66;;;15.44;76.96
16580;BME280;8402;51.466;6.806;2022-11-10T13:13:52;102233.13;;;15.44;76.87
16580;BME280;8402;51.466;6.806;2022-11-10T13:16:49;102229.88;;;15.42;76.63
16580;BME280;8402;51.466;6.806;2022-11-10T13:19:51;102235.56;;;15.46;76.55
16580;BME280;8402;51.466;6.806;2022-11-10T13:22:31;102239.59;;;15.48;76.75